createdAt,value
2023-04-14T00:01:25.919Z,100207.81
2023-04-14T00:06:28.212Z,100187.66
2023-04-14T00:11:27.670Z,100190.69
2023-04-14T00:16:27.408Z,100197.22
2023-04-14T00:21:29.006Z,100199.19
2023-04-14T00:26:31.980Z,100196.78
2023-04-14T00:31:31.897Z,100181.72
2023-04-14T00:36:35.117Z,100172.75
2023-04-14T00:41:38.124Z,100179.22
2023-04-14T00:46:37.424Z,100172.75
2023-04-14T00:51:42.428Z,100188.44
2023-04-14T00:56:43.318Z,100191.19
2023-04-14T01:01:43.062Z,100160.97
2023-04-14T01:06:45.349Z,100175.44
2023-04-14T01:12:15.604Z,100117.69
2023-04-14T01:17:39.187Z,100145.78
2023-04-14T01:22:47.256Z,100160.13
2023-04-14T01:27:59.094Z,100167.50
2023-04-14T01:33:04.449Z,100160.31
2023-04-14T01:38:31.571Z,100139.59
2023-04-14T01:43:34.271Z,100130.31
2023-04-14T01:48:37.201Z,100151.34
2023-04-14T01:53:40.748Z,100145.84
2023-04-14T01:58:44.445Z,100143.22
2023-04-14T02:03:44.818Z,100163.75
2023-04-14T02:08:46.998Z,100163.44
2023-04-14T02:13:47.308Z,100162.53
2023-04-14T02:18:51.331Z,100142.22
2023-04-14T02:23:50.347Z,100164.00
2023-04-14T02:29:10.390Z,100131.66
2023-04-14T02:34:21.214Z,100131.34
2023-04-14T02:39:30.941Z,100151.16
2023-04-14T02:44:53.596Z,100141.91
2023-04-14T02:49:56.632Z,100151.63
2023-04-14T02:55:00.778Z,100129.66
2023-04-14T03:00:00.451Z,100141.09
2023-04-14T03:05:02.109Z,100135.91
2023-04-14T03:10:12.190Z,100152.69
2023-04-14T03:15:13.426Z,100131.13
2023-04-14T03:20:13.181Z,100116.03
2023-04-14T03:25:12.711Z,100158.56
2023-04-14T03:30:15.734Z,100145.75
2023-04-14T03:35:24.477Z,100152.25
2023-04-14T03:40:26.265Z,100162.03
2023-04-14T03:45:28.865Z,100133.91
2023-04-14T03:50:31.755Z,100140.25
2023-04-14T03:55:32.743Z,100147.22
2023-04-14T04:00:32.498Z,100106.06
2023-04-14T04:05:31.664Z,100136.25
2023-04-14T04:10:34.772Z,100140.88
2023-04-14T04:15:34.692Z,100128.00
2023-04-14T04:20:35.334Z,100142.38
2023-04-14T04:25:42.544Z,100153.09
2023-04-14T04:31:03.800Z,100145.97
2023-04-14T04:36:04.932Z,100126.47
2023-04-14T04:41:22.333Z,100123.56
2023-04-14T04:46:45.319Z,100140.59
2023-04-14T04:51:49.381Z,100124.81
2023-04-14T04:56:50.836Z,100148.97
2023-04-14T05:01:52.192Z,100101.50
2023-04-14T05:06:52.344Z,100111.78
2023-04-14T05:11:52.576Z,100117.28
2023-04-14T05:16:54.654Z,100122.16
2023-04-14T05:21:56.038Z,100130.78
2023-04-14T05:27:12.482Z,100113.47
2023-04-14T05:32:15.825Z,100114.22
2023-04-14T05:37:17.308Z,100089.59
2023-04-14T05:42:18.823Z,100107.16
2023-04-14T05:47:18.139Z,100100.50
2023-04-14T05:52:17.400Z,100104.75
2023-04-14T05:57:59.882Z,100100.16
2023-04-14T06:02:58.972Z,100097.38
2023-04-14T06:08:02.291Z,100076.41
2023-04-14T06:13:03.287Z,100086.09
2023-04-14T06:18:06.030Z,100085.09
2023-04-14T06:23:10.939Z,100079.41
2023-04-14T06:28:19.016Z,100071.16
2023-04-14T06:33:18.054Z,100060.22
2023-04-14T06:43:39.881Z,100107.88
2023-04-14T06:48:41.524Z,100089.66
2023-04-14T06:53:42.130Z,100084.72
2023-04-14T06:58:43.263Z,100086.91
2023-04-14T07:03:54.245Z,100067.56
2023-04-14T07:08:58.032Z,100065.63
2023-04-14T07:14:00.526Z,100081.34
2023-04-14T07:18:59.671Z,100073.22
2023-04-14T07:23:58.775Z,100071.41
2023-04-14T07:29:01.289Z,100062.06
2023-04-14T07:34:00.769Z,100045.09
2023-04-14T07:39:02.863Z,100049.06
2023-04-14T07:44:01.617Z,100041.69
2023-04-14T07:49:01.307Z,100026.28
2023-04-14T07:54:01.093Z,99999.84
2023-04-14T07:59:02.699Z,99993.56
2023-04-14T08:04:08.836Z,99986.31
2023-04-14T08:09:10.125Z,99979.97
2023-04-14T08:20:40.421Z,99974.38
2023-04-14T08:25:42.822Z,99982.09
2023-04-14T08:30:52.224Z,99949.63
2023-04-14T08:35:57.905Z,99957.16
2023-04-14T08:41:04.699Z,99972.97
2023-04-14T08:46:07.507Z,99948.63
2023-04-14T08:51:34.489Z,99948.13
2023-04-14T08:56:39.524Z,99956.19
2023-04-14T09:01:39.454Z,99921.59
2023-04-14T09:06:38.873Z,99921.84
2023-04-14T09:11:41.333Z,99927.84
2023-04-14T09:16:40.414Z,99911.28
2023-04-14T09:21:52.950Z,99916.13
2023-04-14T09:27:05.649Z,99904.13
2023-04-14T09:32:05.117Z,99883.13
2023-04-14T09:37:10.402Z,99867.94
2023-04-14T09:42:08.914Z,99896.78
2023-04-14T09:47:10.082Z,99870.78
2023-04-14T09:52:10.041Z,99882.53
2023-04-14T09:57:08.880Z,99860.59
2023-04-14T10:02:09.543Z,99875.16
2023-04-14T10:07:13.736Z,99847.47
2023-04-14T10:12:15.814Z,99849.69
2023-04-14T10:17:14.934Z,99899.16
2023-04-14T10:22:14.630Z,99902.09
2023-04-14T10:27:13.827Z,99920.69
2023-04-14T10:32:16.326Z,99916.97
2023-04-14T10:37:17.008Z,99911.38
2023-04-14T10:42:16.369Z,99892.28
2023-04-14T10:47:25.568Z,99908.75
2023-04-14T10:52:29.291Z,99922.28
2023-04-14T10:57:32.193Z,99912.09
2023-04-14T11:02:36.054Z,99914.09
2023-04-14T11:07:54.756Z,99915.22
2023-04-14T11:13:01.094Z,99929.44
2023-04-14T11:18:16.545Z,99919.00
2023-04-14T11:23:17.659Z,99935.78
2023-04-14T11:28:31.900Z,99932.16
2023-04-14T11:33:34.640Z,99921.50
2023-04-14T11:38:41.213Z,99937.06
2023-04-14T11:43:46.904Z,99930.41
2023-04-14T11:48:46.670Z,99894.50
2023-04-14T11:53:45.702Z,99919.59
2023-04-14T11:58:44.491Z,99881.72
2023-04-14T12:03:56.214Z,99895.53
2023-04-14T12:09:05.106Z,99880.59
2023-04-14T12:14:06.364Z,99911.38
2023-04-14T12:19:05.765Z,99922.56
2023-04-14T12:24:06.088Z,99912.72
2023-04-14T12:29:08.400Z,99909.06
2023-04-14T12:34:07.202Z,99907.63
2023-04-14T12:39:16.605Z,99906.59
2023-04-14T12:44:21.041Z,99885.09
2023-04-14T12:49:41.216Z,99893.28
2023-04-14T12:54:54.046Z,99898.28
2023-04-14T12:59:54.500Z,99873.34
2023-04-14T13:04:57.098Z,99853.72
2023-04-14T13:09:58.879Z,99865.13
2023-04-14T13:16:21.140Z,99873.09
2023-04-14T13:21:04.566Z,99857.66
2023-04-14T13:26:04.606Z,99861.94
2023-04-14T13:38:19.383Z,99847.28
2023-04-14T13:43:19.030Z,99858.13
2023-04-14T13:48:21.636Z,99845.94
2023-04-14T13:53:22.505Z,99893.53
2023-04-14T13:58:23.433Z,99884.09
2023-04-14T14:03:22.823Z,99913.81
2023-04-14T14:08:28.419Z,99911.97
2023-04-14T14:13:35.657Z,99908.72
2023-04-14T14:18:36.614Z,99914.28
2023-04-14T14:23:38.671Z,99916.31
2023-04-14T14:28:43.534Z,99936.44
2023-04-14T14:33:43.442Z,99947.41
2023-04-14T14:38:44.851Z,99970.69
2023-04-14T14:43:43.808Z,99989.44
2023-04-14T14:48:44.195Z,99946.53
2023-04-14T14:53:45.409Z,99973.66
2023-04-14T14:58:52.196Z,99985.28
2023-04-14T15:03:54.649Z,100025.81
2023-04-14T15:08:56.164Z,100011.84
2023-04-14T15:14:00.468Z,100065.34
2023-04-14T15:19:03.714Z,100081.50
2023-04-14T15:24:03.492Z,100092.53
2023-04-14T15:29:02.710Z,100079.34
2023-04-14T15:34:12.759Z,100085.56
2023-04-14T15:39:16.157Z,100087.78
2023-04-14T15:44:14.896Z,100103.44
2023-04-14T15:49:16.640Z,100106.06
2023-04-14T15:54:39.138Z,100095.25
2023-04-14T15:59:45.209Z,100102.66
2023-04-14T16:05:08.435Z,100146.69
2023-04-14T16:10:33.903Z,100192.53
2023-04-14T16:15:43.502Z,100235.34
2023-04-14T16:20:43.929Z,100256.34
2023-04-14T16:25:58.064Z,100212.59
2023-04-14T16:31:00.028Z,100229.53
2023-04-14T16:36:08.974Z,100238.22
2023-04-14T16:41:10.485Z,100236.03
2023-04-14T16:46:15.030Z,100252.00
2023-04-14T16:51:16.660Z,100248.38
2023-04-14T16:56:25.286Z,100299.69
2023-04-14T17:01:30.975Z,100319.28
2023-04-14T17:06:34.085Z,100329.81
2023-04-14T17:11:35.839Z,100272.19
2023-04-14T17:16:37.863Z,100295.66
2023-04-14T17:21:38.619Z,100312.81
2023-04-14T17:26:40.567Z,100330.44
2023-04-14T17:31:41.840Z,100339.50
2023-04-14T17:36:46.936Z,100347.56
2023-04-14T17:41:46.421Z,100356.84
2023-04-14T17:46:48.283Z,100362.13
2023-04-14T17:51:46.872Z,100376.03
2023-04-14T17:56:48.500Z,100368.56
2023-04-14T18:01:50.483Z,100356.44
2023-04-14T18:06:53.344Z,100361.13
2023-04-14T18:11:54.795Z,100355.84
2023-04-14T18:16:59.926Z,100362.13
2023-04-14T18:21:58.658Z,100358.69
2023-04-14T18:26:59.772Z,100346.16
2023-04-14T18:32:01.120Z,100382.91
2023-04-14T18:37:04.146Z,100360.66
2023-04-14T18:42:07.341Z,100382.69
2023-04-14T18:47:11.485Z,100396.28
2023-04-14T18:52:10.076Z,100378.88
2023-04-14T18:57:13.080Z,100324.31
2023-04-14T19:02:13.995Z,100343.47
2023-04-14T19:07:14.182Z,100374.84
2023-04-14T19:12:25.366Z,100383.59
2023-04-14T19:17:38.316Z,100377.53
2023-04-14T19:22:40.586Z,100371.63
2023-04-14T19:27:43.429Z,100370.59
2023-04-14T19:32:44.956Z,100392.38
2023-04-14T19:37:47.202Z,100400.03
2023-04-14T19:42:47.186Z,100346.22
2023-04-14T19:47:52.145Z,100362.41
2023-04-14T19:52:57.161Z,100330.47
2023-04-14T19:57:59.052Z,100307.38
2023-04-14T20:03:04.102Z,100294.22
2023-04-14T20:08:03.832Z,100285.91
2023-04-14T20:13:04.592Z,100281.28
2023-04-14T20:18:04.823Z,100285.81
2023-04-14T20:23:07.413Z,100277.91
2023-04-14T20:28:17.072Z,100278.25
2023-04-14T20:33:19.586Z,100285.94
2023-04-14T20:38:19.300Z,100289.56
2023-04-14T20:43:18.408Z,100302.53
2023-04-14T20:48:20.789Z,100258.34
2023-04-14T20:53:23.093Z,100306.13
2023-04-14T20:58:27.320Z,100326.28
2023-04-14T21:04:22.900Z,100321.78
2023-04-14T21:09:38.868Z,100358.19
2023-04-14T21:15:31.420Z,100352.81
2023-04-14T21:20:09.086Z,100392.28
2023-04-14T21:25:08.755Z,100358.88
2023-04-14T21:30:07.411Z,100362.50
2023-04-14T21:35:14.308Z,100321.22
2023-04-14T21:40:15.955Z,100336.63
2023-04-14T21:45:16.742Z,100346.91
2023-04-14T21:50:17.529Z,100354.94
2023-04-14T21:55:18.103Z,100346.03
2023-04-14T22:00:18.728Z,100324.59
2023-04-14T22:05:20.418Z,100347.72
2023-04-14T22:10:19.126Z,100363.94
2023-04-14T22:15:21.100Z,100371.03
2023-04-14T22:20:23.460Z,100370.81
2023-04-14T22:25:23.646Z,100312.84
2023-04-14T22:30:25.558Z,100320.75
2023-04-14T22:35:24.922Z,100323.13
2023-04-14T22:40:27.730Z,100326.91
2023-04-14T22:45:25.540Z,100354.50
2023-04-14T22:50:25.756Z,100344.53
2023-04-14T22:55:28.233Z,100331.41
2023-04-14T23:00:29.906Z,100329.22
2023-04-14T23:05:28.753Z,100318.88
2023-04-14T23:10:31.107Z,100308.59
2023-04-14T23:15:29.384Z,100294.75
2023-04-14T23:20:30.927Z,100288.00
2023-04-14T23:25:33.525Z,100282.97
2023-04-14T23:30:32.773Z,100261.66
2023-04-14T23:35:36.040Z,100237.78
2023-04-14T23:40:34.857Z,100204.75
2023-04-14T23:45:37.999Z,100209.38
2023-04-14T23:51:00.612Z,100239.09
2023-04-14T23:56:08.797Z,100233.16
